Time;durP1;ratioP1;P1;durP2;ratioP2;P2;SDS_P1;SDS_P2;PMS_P1;PMS_P2;Temp;Humidity;BMP_temperature;BMP_pressure;BME280_temperature;BME280_humidity;BME280_pressure;Samples;Min_cycle;Max_cycle;Signal;HPM_P1;HPM_P2
2022/01/09 00:01:33;;;;;;;0.10;0.10;;;5.10;99.90;;;;;;5063128;28;20558;-85
2022/01/09 00:03:58;;;;;;;0.20;0.20;;;5.10;99.90;;;;;;5062683;28;20196;-85
2022/01/09 00:06:24;;;;;;;0.00;0.00;;;5.10;99.90;;;;;;5063541;28;20211;-85
2022/01/09 00:08:49;;;;;;;0.30;0.30;;;5.10;99.90;;;;;;5063186;28;20268;-84
2022/01/09 00:11:15;;;;;;;0.40;0.40;;;5.10;99.90;;;;;;5064659;28;20192;-84
2022/01/09 00:13:41;;;;;;;0.37;0.37;;;5.10;99.90;;;;;;5067216;28;20192;-83
2022/01/09 00:16:07;;;;;;;0.10;0.10;;;5.20;99.90;;;;;;5066410;28;20187;-83
2022/01/09 00:18:33;;;;;;;0.33;0.33;;;5.10;99.90;;;;;;5066120;28;20570;-84
2022/01/09 00:21:05;;;;;;;0.23;0.23;;;5.20;99.90;;;;;;5067153;28;20181;-83
2022/01/09 00:23:31;;;;;;;0.10;0.10;;;5.10;99.90;;;;;;5065092;28;20649;-83
2022/01/09 00:25:57;;;;;;;0.17;0.17;;;5.20;99.90;;;;;;5063415;28;20172;-84
2022/01/09 00:28:22;;;;;;;0.77;0.77;;;5.20;99.90;;;;;;5066133;28;20268;-83
2022/01/09 00:30:48;;;;;;;0.20;0.20;;;5.20;99.90;;;;;;5061515;28;20201;-84
2022/01/09 00:33:14;;;;;;;1.40;0.60;;;5.30;99.90;;;;;;5062946;28;20185;-84
2022/01/09 00:35:39;;;;;;;0.37;0.37;;;5.40;99.90;;;;;;5065318;28;20201;-83
2022/01/09 00:38:05;;;;;;;0.00;0.00;;;5.40;99.90;;;;;;5061135;28;20193;-85
2022/01/09 00:40:30;;;;;;;0.10;0.10;;;5.30;99.90;;;;;;5064936;28;20571;-83
2022/01/09 00:42:56;;;;;;;0.23;0.23;;;5.40;99.90;;;;;;5065869;28;20184;-84
2022/01/09 00:45:21;;;;;;;0.10;0.10;;;5.40;99.90;;;;;;5067224;28;20884;-84
2022/01/09 00:47:47;;;;;;;0.67;0.13;;;5.30;99.90;;;;;;5067581;28;20246;-84
2022/01/09 00:50:14;;;;;;;0.10;0.10;;;5.40;99.90;;;;;;5066862;28;20192;-83
2022/01/09 00:52:40;;;;;;;0.10;0.10;;;5.40;99.90;;;;;;5066569;28;20180;-84
2022/01/09 00:55:06;;;;;;;0.10;0.10;;;5.40;99.90;;;;;;5066512;28;20215;-83
2022/01/09 00:57:33;;;;;;;0.10;0.10;;;5.40;99.90;;;;;;5066196;28;20231;-84
2022/01/09 00:59:58;;;;;;;0.10;0.10;;;5.40;99.90;;;;;;5062157;28;20201;-83
2022/01/09 01:02:24;;;;;;;0.13;0.13;;;5.40;99.90;;;;;;5059836;28;20186;-84
2022/01/09 01:04:51;;;;;;;0.10;0.10;;;5.40;99.90;;;;;;5067084;28;20197;-84
2022/01/09 01:07:21;;;;;;;0.30;0.30;;;5.50;99.90;;;;;;5066732;28;20705;-84
2022/01/09 01:09:46;;;;;;;0.10;0.10;;;5.50;99.90;;;;;;5066997;28;20275;-83
2022/01/09 01:12:12;;;;;;;0.07;0.07;;;5.50;99.90;;;;;;5064759;28;21050;-84
2022/01/09 01:14:38;;;;;;;0.20;0.20;;;5.50;99.90;;;;;;5064868;28;20694;-84
2022/01/09 01:17:04;;;;;;;0.20;0.20;;;5.50;99.90;;;;;;5056794;28;20185;-83
2022/01/09 01:19:29;;;;;;;0.30;0.30;;;5.60;99.90;;;;;;5066412;28;20190;-83
2022/01/09 01:21:57;;;;;;;0.10;0.10;;;5.60;99.90;;;;;;5062892;28;20184;-84
2022/01/09 01:24:23;;;;;;;0.10;0.10;;;5.50;99.90;;;;;;5064743;28;20200;-84
2022/01/09 01:26:49;;;;;;;0.40;0.40;;;5.50;99.90;;;;;;5062792;28;20185;-84
2022/01/09 01:29:15;;;;;;;0.10;0.10;;;5.50;99.90;;;;;;5064745;28;20271;-83
2022/01/09 01:31:41;;;;;;;0.47;0.17;;;5.50;99.90;;;;;;5064326;28;20185;-84
2022/01/09 01:34:07;;;;;;;0.10;0.10;;;5.50;99.90;;;;;;5063458;28;21022;-83
2022/01/09 01:36:32;;;;;;;0.00;0.00;;;5.40;99.90;;;;;;5063317;28;20185;-84
2022/01/09 01:38:58;;;;;;;0.10;0.10;;;5.40;99.90;;;;;;5063551;28;20228;-83
2022/01/09 01:41:23;;;;;;;0.13;0.13;;;5.40;99.90;;;;;;5064377;28;20177;-83
2022/01/09 01:43:49;;;;;;;0.60;0.30;;;5.40;99.90;;;;;;5062285;28;20681;-84
2022/01/09 01:46:15;;;;;;;0.10;0.10;;;5.40;99.90;;;;;;5065408;28;20658;-84
2022/01/09 01:48:41;;;;;;;0.57;0.57;;;5.40;99.90;;;;;;5065986;28;20195;-84
2022/01/09 01:51:07;;;;;;;0.43;0.20;;;5.40;99.90;;;;;;5069785;28;20185;-83
2022/01/09 01:53:32;;;;;;;0.10;0.10;;;5.40;99.90;;;;;;5068478;28;20187;-84
2022/01/09 01:56:00;;;;;;;0.10;0.10;;;5.40;99.90;;;;;;5070147;28;20199;-84
2022/01/09 01:58:26;;;;;;;0.10;0.10;;;5.40;99.90;;;;;;5067331;28;20215;-84
2022/01/09 02:00:52;;;;;;;0.10;0.10;;;5.50;99.90;;;;;;5067261;28;20181;-84
2022/01/09 02:03:19;;;;;;;0.10;0.10;;;5.50;99.90;;;;;;5067245;28;20725;-83
2022/01/09 02:05:45;;;;;;;0.23;0.23;;;5.50;99.90;;;;;;5066302;28;20293;-84
2022/01/09 02:08:11;;;;;;;0.07;0.07;;;5.50;99.90;;;;;;5061598;28;20250;-84
2022/01/09 02:10:42;;;;;;;0.10;0.10;;;5.60;99.90;;;;;;5066151;28;20238;-84
2022/01/09 02:13:08;;;;;;;0.27;0.27;;;5.60;99.90;;;;;;5065899;28;20185;-84
2022/01/09 02:15:34;;;;;;;0.10;0.10;;;5.50;99.90;;;;;;5062239;28;20689;-84
2022/01/09 02:18:06;;;;;;;0.00;0.00;;;5.50;99.90;;;;;;5066284;28;20197;-84
2022/01/09 02:20:32;;;;;;;0.10;0.10;;;5.50;99.90;;;;;;5061513;28;20177;-85
2022/01/09 02:22:58;;;;;;;0.10;0.10;;;5.60;99.90;;;;;;5067507;28;20177;-85
2022/01/09 02:25:26;;;;;;;0.10;0.10;;;5.60;99.90;;;;;;5065291;28;20708;-84
2022/01/09 02:27:52;;;;;;;0.10;0.10;;;5.60;99.90;;;;;;5064956;28;20195;-83
2022/01/09 02:30:17;;;;;;;0.10;0.10;;;5.70;99.90;;;;;;5059149;28;20539;-85
2022/01/09 02:32:43;;;;;;;0.00;0.00;;;5.70;99.90;;;;;;5067263;28;20181;-84
2022/01/09 02:35:09;;;;;;;0.13;0.13;;;5.70;99.90;;;;;;5065301;28;20243;-84
2022/01/09 02:37:34;;;;;;;0.00;0.00;;;5.70;99.90;;;;;;5062976;28;20571;-84
2022/01/09 02:40:00;;;;;;;0.10;0.10;;;5.70;99.90;;;;;;5066895;28;20609;-84
2022/01/09 02:42:29;;;;;;;0.10;0.10;;;5.70;99.90;;;;;;5067446;28;20190;-84
2022/01/09 02:44:55;;;;;;;0.10;0.10;;;5.70;99.90;;;;;;5060207;28;20763;-84
2022/01/09 02:47:22;;;;;;;0.10;0.10;;;5.80;99.90;;;;;;5066929;28;20203;-84
2022/01/09 02:49:50;;;;;;;0.10;0.10;;;5.70;99.90;;;;;;5062627;28;20222;-84
2022/01/09 02:52:33;;;;;;;0.10;0.10;;;5.70;99.90;;;;;;5064960;28;20189;-83
2022/01/09 02:57:32;;;;;;;0.10;0.10;;;5.70;99.90;;;;;;5067332;28;20247;-84
2022/01/09 02:59:58;;;;;;;0.10;0.10;;;5.70;99.90;;;;;;5065193;28;20195;-84
2022/01/09 03:02:24;;;;;;;0.40;0.20;;;5.60;99.90;;;;;;5064691;28;20687;-84
2022/01/09 03:04:49;;;;;;;0.10;0.10;;;5.40;99.90;;;;;;5067428;28;20290;-84
2022/01/09 03:07:15;;;;;;;0.10;0.10;;;5.50;99.90;;;;;;5066149;28;20189;-84
2022/01/09 03:09:40;;;;;;;0.10;0.10;;;5.50;99.90;;;;;;5069265;28;20651;-84
2022/01/09 03:12:06;;;;;;;0.10;0.10;;;5.60;99.90;;;;;;5067414;28;20268;-84
2022/01/09 03:14:32;;;;;;;0.10;0.10;;;5.70;99.90;;;;;;5068220;28;20326;-84
2022/01/09 03:16:57;;;;;;;0.10;0.10;;;5.70;99.90;;;;;;5064512;28;20244;-85
2022/01/09 03:19:23;;;;;;;0.10;0.10;;;5.80;99.90;;;;;;5068971;28;20278;-84
2022/01/09 03:21:48;;;;;;;0.10;0.10;;;5.70;99.90;;;;;;5069120;28;20280;-84
2022/01/09 03:24:14;;;;;;;0.30;0.30;;;5.80;99.90;;;;;;5068654;28;20204;-85
2022/01/09 03:26:39;;;;;;;0.03;0.03;;;5.80;99.90;;;;;;5067099;28;20181;-83
2022/01/09 03:29:05;;;;;;;0.10;0.10;;;5.70;99.90;;;;;;5063093;28;20569;-83
2022/01/09 03:31:31;;;;;;;0.20;0.20;;;5.80;99.90;;;;;;5068689;28;20195;-84
2022/01/09 03:33:56;;;;;;;0.50;0.50;;;5.80;99.90;;;;;;5067191;28;20211;-84
2022/01/09 03:36:22;;;;;;;0.10;0.10;;;5.80;99.90;;;;;;5068040;28;20192;-84
2022/01/09 03:38:47;;;;;;;0.10;0.10;;;5.80;99.90;;;;;;5064302;28;20780;-84
2022/01/09 03:41:13;;;;;;;0.10;0.10;;;5.70;99.90;;;;;;5065899;28;20181;-84
2022/01/09 03:43:39;;;;;;;0.50;0.50;;;5.70;99.90;;;;;;5063733;28;20195;-84
2022/01/09 03:46:04;;;;;;;0.00;0.00;;;5.70;99.90;;;;;;5062371;28;20610;-83
2022/01/09 03:48:31;;;;;;;0.10;0.10;;;5.60;99.90;;;;;;5059164;28;20190;-84
2022/01/09 03:50:57;;;;;;;0.10;0.10;;;5.60;99.90;;;;;;5062574;28;20188;-84
2022/01/09 03:53:23;;;;;;;0.10;0.10;;;5.60;99.90;;;;;;5065024;28;20183;-84
2022/01/09 03:55:48;;;;;;;0.30;0.20;;;5.50;99.90;;;;;;5069400;28;20233;-84
2022/01/09 03:58:14;;;;;;;0.47;0.17;;;5.40;99.90;;;;;;5066555;28;20216;-84
2022/01/09 04:00:40;;;;;;;0.20;0.20;;;5.20;99.90;;;;;;5068276;28;20177;-84
2022/01/09 04:03:05;;;;;;;0.10;0.10;;;5.20;99.90;;;;;;5063261;28;20221;-84
2022/01/09 04:05:31;;;;;;;0.10;0.10;;;5.10;99.90;;;;;;5067611;28;20203;-84
2022/01/09 04:07:56;;;;;;;0.10;0.10;;;5.10;99.90;;;;;;5067418;28;20190;-84
2022/01/09 04:10:25;;;;;;;0.10;0.10;;;5.00;99.90;;;;;;5066248;28;21014;-84
2022/01/09 04:12:58;;;;;;;0.20;0.20;;;5.00;99.90;;;;;;5062793;28;20226;-85
2022/01/09 04:15:24;;;;;;;0.10;0.10;;;5.00;99.90;;;;;;5062296;28;20685;-84
2022/01/09 04:17:54;;;;;;;0.00;0.00;;;5.00;99.90;;;;;;5067815;28;20214;-84
2022/01/09 04:20:21;;;;;;;0.10;0.10;;;5.00;99.90;;;;;;5069334;28;20180;-83
2022/01/09 04:22:48;;;;;;;0.00;0.00;;;5.00;99.90;;;;;;5070748;28;20189;-83
2022/01/09 04:25:16;;;;;;;0.10;0.10;;;5.00;99.90;;;;;;5070652;28;20207;-84
2022/01/09 04:27:42;;;;;;;0.00;0.00;;;5.00;99.90;;;;;;5068799;28;20186;-84
2022/01/09 04:30:09;;;;;;;0.10;0.10;;;4.90;99.90;;;;;;5069165;28;20188;-83
2022/01/09 04:32:34;;;;;;;0.10;0.10;;;5.00;99.90;;;;;;5071315;28;20284;-84
2022/01/09 04:35:00;;;;;;;0.10;0.10;;;4.90;99.90;;;;;;5069051;28;20234;-84
2022/01/09 04:37:26;;;;;;;0.00;0.00;;;4.90;99.90;;;;;;5065557;28;20210;-83
2022/01/09 04:39:53;;;;;;;0.00;0.00;;;4.90;99.90;;;;;;5070391;28;20218;-84
2022/01/09 04:42:19;;;;;;;0.00;0.00;;;4.90;99.90;;;;;;5070196;28;20280;-84
2022/01/09 04:44:45;;;;;;;0.10;0.10;;;4.90;99.90;;;;;;5065118;28;20290;-84
2022/01/09 04:47:15;;;;;;;0.17;0.13;;;4.90;99.90;;;;;;5070683;28;20208;-84
2022/01/09 04:49:44;;;;;;;0.10;0.10;;;4.90;99.90;;;;;;5068961;28;20176;-84
2022/01/09 04:52:14;;;;;;;0.37;0.27;;;5.00;99.90;;;;;;5066354;28;20565;-84
2022/01/09 04:54:40;;;;;;;0.10;0.10;;;5.00;99.90;;;;;;5070302;28;20294;-83
2022/01/09 04:57:06;;;;;;;0.10;0.10;;;4.90;99.90;;;;;;5068092;28;20199;-83
2022/01/09 04:59:31;;;;;;;0.13;0.13;;;4.90;99.90;;;;;;5067596;28;20207;-84
2022/01/09 05:01:57;;;;;;;0.00;0.00;;;4.90;99.90;;;;;;5065566;28;20173;-83
2022/01/09 05:04:23;;;;;;;0.10;0.10;;;4.90;99.90;;;;;;5068287;28;20264;-84
2022/01/09 05:06:49;;;;;;;0.10;0.10;;;4.90;99.90;;;;;;5070390;28;20188;-84
2022/01/09 05:09:14;;;;;;;0.10;0.10;;;4.90;99.90;;;;;;5069905;28;20180;-83
2022/01/09 05:11:40;;;;;;;0.00;0.00;;;4.80;99.90;;;;;;5071756;28;20652;-83
2022/01/09 05:14:05;;;;;;;0.00;0.00;;;4.80;99.90;;;;;;5065333;28;20214;-83
2022/01/09 05:16:31;;;;;;;0.10;0.10;;;4.80;99.90;;;;;;5067280;28;20191;-84
2022/01/09 05:19:08;;;;;;;0.10;0.10;;;4.80;99.90;;;;;;5061673;28;20200;-84
2022/01/09 05:21:33;;;;;;;0.00;0.00;;;4.80;99.90;;;;;;5069063;28;20172;-84
2022/01/09 05:23:59;;;;;;;0.00;0.00;;;4.70;99.90;;;;;;5069752;28;20684;-84
2022/01/09 05:26:26;;;;;;;0.10;0.10;;;4.70;99.90;;;;;;5069329;28;20188;-84
2022/01/09 05:28:51;;;;;;;0.00;0.00;;;4.70;99.90;;;;;;5073202;28;20193;-84
2022/01/09 05:31:17;;;;;;;0.10;0.10;;;4.70;99.90;;;;;;5069046;28;20212;-84
2022/01/09 05:33:42;;;;;;;0.10;0.10;;;4.70;99.90;;;;;;5071524;28;20185;-84
2022/01/09 05:36:08;;;;;;;0.00;0.00;;;4.70;99.90;;;;;;5073120;28;20216;-84
2022/01/09 05:38:33;;;;;;;0.10;0.10;;;4.70;99.90;;;;;;5068467;28;20206;-83
2022/01/09 05:40:59;;;;;;;3.50;0.20;;;4.70;99.90;;;;;;5071661;28;20631;-84
2022/01/09 05:43:25;;;;;;;0.00;0.00;;;4.70;99.90;;;;;;5064116;28;20193;-83
2022/01/09 05:45:50;;;;;;;0.00;0.00;;;4.70;99.90;;;;;;5062172;28;20212;-84
2022/01/09 05:48:17;;;;;;;0.10;0.10;;;4.70;99.90;;;;;;5064407;28;20689;-84
2022/01/09 05:50:43;;;;;;;0.10;0.10;;;4.70;99.90;;;;;;5069157;28;20239;-84
2022/01/09 05:53:09;;;;;;;0.10;0.10;;;4.70;99.90;;;;;;5066692;28;20218;-84
2022/01/09 05:55:34;;;;;;;0.10;0.10;;;4.70;99.90;;;;;;5066281;28;20243;-84
2022/01/09 05:58:00;;;;;;;0.10;0.10;;;4.60;99.90;;;;;;5066179;28;20207;-84
2022/01/09 06:00:25;;;;;;;0.00;0.00;;;4.70;99.90;;;;;;5065195;28;21371;-84
2022/01/09 06:02:51;;;;;;;0.47;0.23;;;4.70;99.90;;;;;;5062928;28;20269;-84
2022/01/09 06:05:17;;;;;;;0.20;0.20;;;4.70;99.90;;;;;;5064282;28;20199;-84
2022/01/09 06:07:43;;;;;;;0.10;0.10;;;4.70;99.90;;;;;;5065758;28;20230;-83
2022/01/09 06:10:10;;;;;;;0.10;0.10;;;4.60;99.90;;;;;;5069186;28;20186;-84
2022/01/09 06:12:36;;;;;;;0.10;0.10;;;4.60;99.90;;;;;;5069406;28;20199;-84
2022/01/09 06:15:02;;;;;;;0.10;0.10;;;4.60;99.90;;;;;;5068158;28;20977;-83
2022/01/09 06:17:28;;;;;;;0.10;0.10;;;4.60;99.90;;;;;;5066631;28;20237;-83
2022/01/09 06:19:53;;;;;;;0.10;0.10;;;4.70;99.90;;;;;;5065479;28;20286;-85
2022/01/09 06:22:20;;;;;;;0.10;0.10;;;4.70;99.90;;;;;;5066031;28;20557;-84
2022/01/09 06:24:52;;;;;;;0.10;0.10;;;4.70;99.90;;;;;;5065097;28;20212;-84
2022/01/09 06:27:18;;;;;;;0.10;0.10;;;4.70;99.90;;;;;;5066605;28;20179;-83
2022/01/09 06:29:44;;;;;;;0.10;0.10;;;4.70;99.90;;;;;;5066913;28;20238;-83
2022/01/09 06:32:10;;;;;;;0.10;0.10;;;4.70;99.90;;;;;;5069631;28;20199;-83
2022/01/09 06:34:35;;;;;;;0.00;0.00;;;4.70;99.90;;;;;;5065924;28;20672;-83
2022/01/09 06:37:02;;;;;;;0.07;0.07;;;4.70;99.90;;;;;;5064523;28;20184;-83
2022/01/09 06:39:28;;;;;;;0.10;0.10;;;4.70;99.90;;;;;;5067335;28;20179;-83
2022/01/09 06:41:53;;;;;;;0.10;0.10;;;4.60;99.90;;;;;;5067760;28;20189;-84
2022/01/09 06:44:19;;;;;;;0.20;0.20;;;4.60;99.90;;;;;;5069239;28;20202;-83
2022/01/09 06:46:45;;;;;;;0.20;0.20;;;4.60;99.90;;;;;;5067452;28;20652;-83
2022/01/09 06:49:11;;;;;;;0.10;0.10;;;4.60;99.90;;;;;;5065831;28;20630;-84
2022/01/09 06:51:36;;;;;;;0.17;0.17;;;4.70;99.90;;;;;;5067652;28;20542;-84
2022/01/09 06:54:02;;;;;;;0.17;0.17;;;4.70;99.90;;;;;;5066578;28;20229;-84
2022/01/09 06:56:28;;;;;;;0.00;0.00;;;4.60;99.90;;;;;;5067538;28;20259;-84
2022/01/09 06:58:54;;;;;;;0.00;0.00;;;4.60;99.90;;;;;;5065274;28;20226;-83
2022/01/09 07:01:19;;;;;;;0.10;0.10;;;4.70;99.90;;;;;;5063535;28;20210;-83
2022/01/09 07:03:45;;;;;;;0.10;0.10;;;4.60;99.90;;;;;;5065138;28;20183;-83
2022/01/09 07:06:11;;;;;;;0.00;0.00;;;4.70;99.90;;;;;;5067363;28;20189;-83
2022/01/09 07:08:37;;;;;;;0.03;0.03;;;4.70;99.90;;;;;;5067354;28;20194;-83
2022/01/09 07:11:03;;;;;;;0.10;0.10;;;4.70;99.90;;;;;;5067675;28;20288;-84
2022/01/09 07:13:30;;;;;;;0.10;0.10;;;4.70;99.90;;;;;;5062690;28;20185;-83
2022/01/09 07:15:55;;;;;;;1.17;0.87;;;4.70;99.90;;;;;;5066745;28;20575;-83
2022/01/09 07:18:21;;;;;;;0.40;0.40;;;4.70;99.90;;;;;;5065708;28;20214;-84
2022/01/09 07:20:47;;;;;;;0.10;0.10;;;4.80;99.90;;;;;;5065784;28;20198;-84
2022/01/09 07:23:12;;;;;;;0.37;0.20;;;4.80;99.90;;;;;;5069833;28;20672;-84
2022/01/09 07:25:38;;;;;;;0.10;0.10;;;4.80;99.90;;;;;;5067172;28;20437;-83
2022/01/09 07:28:04;;;;;;;0.10;0.10;;;4.80;99.90;;;;;;5065779;28;20281;-84
2022/01/09 07:30:30;;;;;;;0.00;0.00;;;4.80;99.90;;;;;;5063294;28;20196;-81
2022/01/09 07:32:56;;;;;;;0.20;0.20;;;4.80;99.90;;;;;;5060580;28;20197;-82
2022/01/09 07:35:23;;;;;;;0.10;0.10;;;4.80;99.90;;;;;;5063916;28;20523;-84
2022/01/09 07:37:49;;;;;;;0.27;0.27;;;4.80;99.90;;;;;;5060416;28;20206;-84
2022/01/09 07:40:15;;;;;;;0.10;0.10;;;4.80;99.90;;;;;;5065413;28;20695;-85
2022/01/09 07:42:41;;;;;;;0.17;0.17;;;4.80;99.90;;;;;;5063064;28;21058;-84
2022/01/09 07:45:07;;;;;;;0.10;0.10;;;4.80;99.90;;;;;;5064862;28;20209;-83
2022/01/09 07:47:34;;;;;;;1.90;0.67;;;4.80;99.90;;;;;;5069410;28;20190;-83
2022/01/09 07:50:00;;;;;;;1.30;0.87;;;4.80;99.90;;;;;;5069381;28;20230;-84
2022/01/09 07:52:25;;;;;;;0.20;0.20;;;4.80;99.90;;;;;;5071239;28;20191;-83
2022/01/09 07:54:51;;;;;;;0.83;0.83;;;4.90;99.90;;;;;;5067586;28;20606;-84
2022/01/09 07:57:17;;;;;;;0.10;0.10;;;4.90;99.90;;;;;;5067807;28;20230;-84
2022/01/09 07:59:42;;;;;;;0.97;0.40;;;4.90;99.90;;;;;;5069097;28;20199;-83
2022/01/09 08:02:09;;;;;;;0.10;0.10;;;4.90;99.90;;;;;;5067249;28;20198;-83
2022/01/09 08:04:35;;;;;;;0.10;0.10;;;5.00;99.90;;;;;;5068565;28;20206;-84
2022/01/09 08:07:01;;;;;;;0.10;0.10;;;5.00;99.90;;;;;;5069700;28;20184;-84
2022/01/09 08:09:26;;;;;;;0.30;0.30;;;5.00;99.90;;;;;;5069549;28;20186;-83
2022/01/09 08:11:55;;;;;;;0.93;0.20;;;5.00;99.90;;;;;;5069369;28;20694;-83
2022/01/09 08:14:20;;;;;;;0.10;0.10;;;5.00;99.90;;;;;;5065654;28;20208;-84
2022/01/09 08:16:46;;;;;;;1.53;1.53;;;5.00;99.90;;;;;;5066146;28;20248;-84
2022/01/09 08:19:13;;;;;;;0.30;0.30;;;5.00;99.90;;;;;;5066243;28;20222;-84
2022/01/09 08:21:39;;;;;;;0.10;0.10;;;5.10;99.90;;;;;;5064211;28;20288;-84
2022/01/09 08:24:05;;;;;;;0.20;0.17;;;5.00;99.90;;;;;;5066549;28;20200;-84
2022/01/09 08:26:30;;;;;;;1.20;0.50;;;5.10;99.90;;;;;;5066186;28;20188;-83
2022/01/09 08:28:56;;;;;;;0.47;0.47;;;5.10;99.90;;;;;;5064171;28;20223;-83
2022/01/09 08:31:22;;;;;;;0.10;0.10;;;5.20;99.90;;;;;;5068207;28;20237;-84
2022/01/09 08:33:48;;;;;;;0.00;0.00;;;5.20;99.90;;;;;;5064909;28;20322;-84
2022/01/09 08:36:14;;;;;;;0.20;0.20;;;5.20;99.90;;;;;;5064887;28;20242;-84
2022/01/09 08:38:40;;;;;;;0.23;0.20;;;5.20;99.90;;;;;;5062336;28;20206;-84
2022/01/09 08:41:06;;;;;;;0.20;0.20;;;5.20;99.90;;;;;;5065516;28;20183;-85
2022/01/09 08:43:32;;;;;;;0.33;0.33;;;5.20;99.90;;;;;;5065863;28;20194;-84
2022/01/09 08:45:58;;;;;;;0.10;0.10;;;5.20;99.90;;;;;;5065744;28;20291;-85
2022/01/09 08:48:24;;;;;;;0.10;0.10;;;5.20;99.90;;;;;;5066299;28;20638;-83
2022/01/09 08:50:49;;;;;;;0.10;0.10;;;5.20;99.90;;;;;;5056770;28;20252;-84
2022/01/09 08:53:15;;;;;;;0.40;0.20;;;5.10;99.90;;;;;;5067643;28;20317;-84
2022/01/09 08:55:41;;;;;;;0.50;0.40;;;5.10;99.90;;;;;;5066826;28;20284;-84
2022/01/09 08:58:07;;;;;;;0.40;0.40;;;5.00;99.90;;;;;;5069642;28;20217;-84
2022/01/09 09:00:32;;;;;;;0.20;0.10;;;5.10;99.90;;;;;;5070352;28;20191;-83
2022/01/09 09:02:58;;;;;;;0.10;0.10;;;5.10;99.90;;;;;;5068931;28;20184;-84
2022/01/09 09:05:23;;;;;;;0.10;0.10;;;5.10;99.90;;;;;;5066306;28;20200;-84
2022/01/09 09:07:49;;;;;;;1.17;1.17;;;5.20;99.90;;;;;;5067342;28;20193;-84
2022/01/09 09:10:15;;;;;;;0.10;0.10;;;5.20;99.90;;;;;;5065612;28;20271;-83
2022/01/09 09:12:40;;;;;;;0.30;0.23;;;5.30;99.90;;;;;;5064639;28;20684;-82
2022/01/09 09:15:07;;;;;;;0.30;0.30;;;5.20;99.90;;;;;;5059422;28;20218;-80
2022/01/09 09:17:32;;;;;;;1.80;0.23;;;5.30;99.90;;;;;;5065862;28;20204;-80
2022/01/09 09:19:58;;;;;;;0.00;0.00;;;5.40;99.90;;;;;;5066281;28;20189;-80
2022/01/09 09:22:24;;;;;;;0.10;0.10;;;5.40;99.90;;;;;;5063168;28;20184;-80
2022/01/09 09:24:50;;;;;;;0.40;0.40;;;5.40;99.90;;;;;;5069472;28;20246;-80
2022/01/09 09:27:19;;;;;;;0.10;0.10;;;5.50;99.90;;;;;;5064651;28;20188;-80
2022/01/09 09:29:45;;;;;;;0.10;0.10;;;5.50;99.90;;;;;;5064809;28;20192;-80
2022/01/09 09:32:13;;;;;;;0.17;0.17;;;5.50;99.90;;;;;;5064306;28;20555;-80
2022/01/09 09:34:39;;;;;;;0.10;0.10;;;5.60;99.90;;;;;;5065474;28;20202;-80
2022/01/09 09:37:05;;;;;;;0.10;0.10;;;5.60;99.90;;;;;;5062534;28;20209;-81
2022/01/09 09:39:33;;;;;;;0.83;0.83;;;5.60;99.90;;;;;;5068269;28;20239;-80
2022/01/09 09:42:00;;;;;;;0.33;0.13;;;5.60;99.90;;;;;;5065262;28;20302;-80
2022/01/09 09:44:25;;;;;;;0.10;0.10;;;5.70;99.90;;;;;;5065983;28;20219;-80
2022/01/09 09:46:53;;;;;;;0.43;0.43;;;5.70;99.90;;;;;;5067672;28;20279;-80
2022/01/09 09:49:20;;;;;;;1.90;0.40;;;5.70;99.90;;;;;;5063562;28;20302;-80
2022/01/09 09:51:46;;;;;;;0.10;0.10;;;5.70;99.90;;;;;;5062953;28;20189;-81
2022/01/09 09:54:11;;;;;;;0.20;0.20;;;5.80;99.90;;;;;;5069091;28;21344;-80
2022/01/09 09:56:37;;;;;;;0.10;0.10;;;5.80;99.90;;;;;;5065102;28;20213;-80
2022/01/09 09:59:03;;;;;;;0.10;0.10;;;5.80;99.90;;;;;;5056116;28;20635;-80
2022/01/09 10:01:31;;;;;;;0.00;0.00;;;5.90;99.90;;;;;;5064868;28;20639;-80
2022/01/09 10:03:58;;;;;;;0.20;0.20;;;5.80;99.90;;;;;;5063921;28;20200;-80
2022/01/09 10:06:48;;;;;;;0.33;0.23;;;5.90;99.90;;;;;;5058711;28;20272;-80
2022/01/09 10:09:15;;;;;;;0.10;0.10;;;6.00;99.90;;;;;;5067950;28;20189;-80
2022/01/09 10:12:01;;;;;;;0.10;0.10;;;6.20;99.90;;;;;;5063772;28;20261;-80
2022/01/09 10:14:28;;;;;;;0.17;0.17;;;6.30;99.90;;;;;;5066590;28;20576;-80
2022/01/09 10:17:16;;;;;;;0.10;0.10;;;6.30;99.90;;;;;;5066743;28;20205;-80
2022/01/09 10:19:53;;;;;;;0.10;0.10;;;6.40;99.90;;;;;;5065331;28;21147;-80
2022/01/09 10:22:22;;;;;;;1.07;0.40;;;6.40;99.90;;;;;;5061067;28;20177;-79
2022/01/09 10:24:48;;;;;;;0.10;0.10;;;6.50;99.90;;;;;;5060532;28;20606;-80
2022/01/09 10:27:30;;;;;;;0.10;0.10;;;6.40;99.90;;;;;;5068049;28;20188;-80
2022/01/09 10:29:56;;;;;;;0.03;0.03;;;6.40;99.90;;;;;;5067308;28;21032;-80
2022/01/09 10:32:28;;;;;;;0.10;0.10;;;6.50;99.90;;;;;;5062525;28;20283;-80
2022/01/09 10:35:16;;;;;;;0.10;0.10;;;6.40;99.90;;;;;;5067896;28;20217;-80
2022/01/09 10:37:44;;;;;;;0.23;0.23;;;6.40;99.90;;;;;;5066094;28;20207;-80
2022/01/09 10:40:19;;;;;;;0.10;0.10;;;6.30;99.90;;;;;;5062584;28;20245;-80
2022/01/09 10:42:45;;;;;;;0.53;0.53;;;6.30;99.90;;;;;;5062121;28;20177;-85
2022/01/09 10:45:23;;;;;;;0.27;0.27;;;6.30;99.90;;;;;;5063938;28;20213;-82
2022/01/09 10:47:54;;;;;;;0.33;0.20;;;6.20;99.90;;;;;;5064279;28;20223;-81
2022/01/09 10:50:28;;;;;;;0.10;0.10;;;6.10;99.90;;;;;;5065503;28;20298;-81
2022/01/09 10:53:21;;;;;;;0.10;0.10;;;6.10;99.90;;;;;;5069808;28;20279;-81
2022/01/09 10:56:07;;;;;;;0.10;0.10;;;6.10;99.90;;;;;;5065975;28;20208;-81
2022/01/09 10:58:53;;;;;;;0.83;0.83;;;6.10;99.90;;;;;;5071659;28;20679;-81
2022/01/09 11:01:24;;;;;;;0.37;0.37;;;6.00;99.90;;;;;;5067067;28;20220;-81
2022/01/09 11:03:54;;;;;;;0.10;0.10;;;6.10;99.90;;;;;;5071078;28;20283;-81
2022/01/09 11:06:21;;;;;;;0.40;0.40;;;6.10;99.90;;;;;;5071528;28;20180;-81
2022/01/09 11:08:47;;;;;;;0.00;0.00;;;6.10;99.90;;;;;;5067851;28;20239;-81
2022/01/09 11:11:23;;;;;;;0.10;0.10;;;6.20;99.90;;;;;;5060440;28;20187;-81
2022/01/09 11:13:51;;;;;;;0.10;0.10;;;6.20;99.90;;;;;;5057891;28;20578;-81
2022/01/09 11:16:37;;;;;;;0.20;0.20;;;6.30;99.90;;;;;;5062847;28;20225;-81
2022/01/09 11:19:14;;;;;;;0.10;0.10;;;6.30;99.90;;;;;;5066885;28;20203;-82
2022/01/09 11:21:43;;;;;;;5.20;0.43;;;6.30;99.90;;;;;;5062666;28;20183;-81
2022/01/09 11:24:46;;;;;;;1.57;0.77;;;6.30;99.90;;;;;;5062166;28;20200;-81
2022/01/09 11:27:17;;;;;;;0.10;0.10;;;6.30;99.90;;;;;;5066846;28;20187;-82
2022/01/09 11:29:57;;;;;;;0.10;0.10;;;6.40;99.90;;;;;;5066822;28;20707;-81
2022/01/09 11:33:01;;;;;;;0.10;0.10;;;6.50;99.90;;;;;;5062930;28;20195;-81
2022/01/09 11:35:47;;;;;;;0.20;0.20;;;6.70;99.90;;;;;;5070235;28;20202;-80
2022/01/09 11:38:45;;;;;;;1.40;0.83;;;6.80;99.90;;;;;;5068318;28;20632;-82
2022/01/09 11:41:20;;;;;;;0.10;0.10;;;6.80;99.90;;;;;;5066119;28;20207;-81
2022/01/09 11:44:11;;;;;;;0.20;0.20;;;7.00;99.90;;;;;;5065382;28;20238;-81
2022/01/09 11:47:03;;;;;;;0.13;0.13;;;6.90;99.90;;;;;;5068459;28;20267;-82
2022/01/09 11:49:39;;;;;;;0.40;0.40;;;7.00;99.90;;;;;;5067067;28;20658;-82
2022/01/09 11:52:05;;;;;;;0.43;0.30;;;7.10;99.90;;;;;;5066332;28;20180;-82
2022/01/09 11:54:57;;;;;;;0.00;0.00;;;7.10;99.90;;;;;;5067511;28;20225;-81
2022/01/09 11:57:46;;;;;;;0.00;0.00;;;7.20;99.90;;;;;;5066437;28;20173;-82
2022/01/09 12:00:30;;;;;;;0.10;0.10;;;7.40;99.90;;;;;;5072103;28;20183;-81
2022/01/09 12:02:56;;;;;;;0.10;0.10;;;7.40;99.90;;;;;;5072453;28;20171;-84
2022/01/09 12:05:22;;;;;;;0.10;0.10;;;7.40;99.90;;;;;;5073302;28;20205;-81
2022/01/09 12:07:48;;;;;;;0.10;0.10;;;7.50;99.90;;;;;;5069076;28;20185;-81
2022/01/09 12:10:28;;;;;;;1.50;0.70;;;7.60;99.90;;;;;;5069217;28;20189;-82
2022/01/09 12:12:56;;;;;;;0.40;0.40;;;7.50;99.90;;;;;;5068964;28;20180;-81
2022/01/09 12:15:35;;;;;;;0.10;0.10;;;7.40;99.90;;;;;;5064265;28;20257;-82
2022/01/09 12:18:03;;;;;;;0.10;0.10;;;7.30;99.90;;;;;;5062993;28;20216;-81
2022/01/09 12:20:32;;;;;;;0.27;0.20;;;7.30;99.90;;;;;;5065841;28;20535;-84
2022/01/09 12:23:04;;;;;;;0.10;0.10;;;7.30;99.90;;;;;;5064017;28;20184;-84
2022/01/09 12:25:36;;;;;;;0.10;0.10;;;7.20;99.90;;;;;;5064903;28;20215;-86
2022/01/09 12:28:23;;;;;;;0.13;0.13;;;7.20;99.90;;;;;;5065036;28;20192;-87
2022/01/09 12:30:59;;;;;;;0.10;0.10;;;7.30;99.90;;;;;;5070243;28;20185;-86
2022/01/09 12:33:25;;;;;;;0.10;0.10;;;7.40;99.90;;;;;;5065980;28;20654;-85
2022/01/09 12:36:05;;;;;;;0.10;0.10;;;7.20;99.90;;;;;;5063308;28;20285;-85
2022/01/09 12:38:47;;;;;;;0.10;0.10;;;7.30;99.90;;;;;;5064823;28;20208;-85
2022/01/09 12:41:20;;;;;;;0.10;0.10;;;7.40;99.90;;;;;;5065219;28;20917;-84
2022/01/09 12:43:46;;;;;;;0.20;0.10;;;7.40;99.90;;;;;;5065751;28;20169;-85
2022/01/09 12:46:17;;;;;;;0.10;0.10;;;7.30;99.90;;;;;;5069653;28;20183;-84
2022/01/09 12:48:54;;;;;;;0.10;0.10;;;7.20;99.90;;;;;;5069345;28;20181;-84
2022/01/09 12:51:21;;;;;;;0.27;0.27;;;7.50;99.90;;;;;;5064769;28;20949;-83
2022/01/09 12:53:55;;;;;;;0.10;0.10;;;7.50;99.90;;;;;;5065706;28;20239;-86
2022/01/09 12:56:26;;;;;;;0.10;0.10;;;7.50;99.90;;;;;;5073566;28;20180;-85
2022/01/09 12:58:55;;;;;;;0.30;0.20;;;7.70;99.90;;;;;;5080975;28;20247;-85
2022/01/09 13:01:32;;;;;;;0.20;0.20;;;7.70;99.90;;;;;;5081555;28;20201;-85
2022/01/09 13:04:01;;;;;;;0.17;0.17;;;7.60;99.90;;;;;;5080150;28;20235;-84
2022/01/09 13:06:29;;;;;;;0.10;0.10;;;7.60;99.90;;;;;;5080255;28;20192;-85